createdAt,value
2022-08-28T00:01:45.323Z,100666.41
2022-08-28T00:04:12.653Z,100674.84
2022-08-28T00:06:39.744Z,100671.75
2022-08-28T00:09:08.014Z,100667.81
2022-08-28T00:11:39.405Z,100669.94
2022-08-28T00:14:09.233Z,100679.91
2022-08-28T00:16:36.527Z,100673.72
2022-08-28T00:19:04.603Z,100677.38
2022-08-28T00:21:33.218Z,100677.53
2022-08-28T00:24:00.653Z,100676.56
2022-08-28T00:26:46.565Z,100673.47
2022-08-28T00:29:14.195Z,100676.28
2022-08-28T00:31:41.377Z,100674.88
2022-08-28T00:34:09.076Z,100679.22
2022-08-28T00:36:37.772Z,100680.38
2022-08-28T00:39:06.483Z,100684.13
2022-08-28T00:41:35.015Z,100676.28
2022-08-28T00:44:23.055Z,100680.78
2022-08-28T00:46:53.447Z,100673.31
2022-08-28T00:49:28.027Z,100672.88
2022-08-28T00:52:11.306Z,100674.56
2022-08-28T00:54:58.899Z,100674.13
2022-08-28T00:57:31.939Z,100675.97
2022-08-28T00:59:59.367Z,100676.69
2022-08-28T01:02:27.449Z,100668.66
2022-08-28T01:04:55.284Z,100672.31
2022-08-28T01:07:23.241Z,100664.75
2022-08-28T01:09:53.488Z,100671.06
2022-08-28T01:12:27.744Z,100672.47
2022-08-28T01:14:58.711Z,100671.91
2022-08-28T01:17:31.232Z,100677.94
2022-08-28T01:20:04.382Z,100678.22
2022-08-28T01:22:39.229Z,100672.63
2022-08-28T01:25:10.487Z,100675.13
2022-08-28T01:27:41.773Z,100672.47
2022-08-28T01:30:11.388Z,100679.63
2022-08-28T01:32:41.569Z,100675.81
2022-08-28T01:35:11.462Z,100682.03
2022-08-28T01:37:38.617Z,100678.22
2022-08-28T01:40:09.314Z,100674.88
2022-08-28T01:42:39.239Z,100682.97
2022-08-28T01:45:10.996Z,100677.94
2022-08-28T01:47:39.037Z,100680.47
2022-08-28T01:50:08.460Z,100680.75
2022-08-28T01:52:36.436Z,100670.06
2022-08-28T01:55:05.780Z,100665.00
2022-08-28T01:57:33.196Z,100671.91
2022-08-28T02:00:00.482Z,100670.63
2022-08-28T02:02:27.742Z,100674.16
2022-08-28T02:04:54.839Z,100670.34
2022-08-28T02:07:22.248Z,100672.88
2022-08-28T02:09:49.389Z,100670.50
2022-08-28T02:12:17.700Z,100677.75
2022-08-28T02:14:44.853Z,100676.81
2022-08-28T02:17:12.108Z,100676.09
2022-08-28T02:19:39.264Z,100670.63
2022-08-28T02:22:08.259Z,100669.50
2022-08-28T02:24:36.014Z,100673.00
2022-08-28T02:27:04.617Z,100673.72
2022-08-28T02:29:31.931Z,100675.41
2022-08-28T02:31:59.094Z,100678.19
2022-08-28T02:34:26.239Z,100676.66
2022-08-28T02:36:53.350Z,100672.44
2022-08-28T02:39:20.457Z,100675.09
2022-08-28T02:41:47.616Z,100675.94
2022-08-28T02:44:14.749Z,100676.50
2022-08-28T02:46:42.008Z,100672.31
2022-08-28T02:49:09.133Z,100675.34
2022-08-28T02:51:36.312Z,100682.91
2022-08-28T02:54:03.509Z,100688.13
2022-08-28T02:56:31.038Z,100687.00
2022-08-28T02:58:58.373Z,100680.53
2022-08-28T03:01:25.596Z,100680.94
2022-08-28T03:03:53.085Z,100684.84
2022-08-28T03:06:20.803Z,100677.72
2022-08-28T03:08:47.965Z,100678.13
2022-08-28T03:11:15.069Z,100688.19
2022-08-28T03:13:42.444Z,100685.53
2022-08-28T03:16:09.749Z,100683.69
2022-08-28T03:18:36.965Z,100684.91
2022-08-28T03:21:04.234Z,100682.94
2022-08-28T03:23:31.934Z,100683.63
2022-08-28T03:26:10.612Z,100689.41
2022-08-28T03:28:42.095Z,100681.66
2022-08-28T03:31:11.720Z,100681.25
2022-08-28T03:33:42.681Z,100685.31
2022-08-28T03:36:14.889Z,100683.38
2022-08-28T03:38:42.299Z,100693.31
2022-08-28T03:41:14.555Z,100693.88
2022-08-28T03:43:42.471Z,100683.84
2022-08-28T03:46:13.780Z,100685.53
2022-08-28T03:48:44.710Z,100693.03
2022-08-28T03:51:15.083Z,100687.88
2022-08-28T03:53:43.181Z,100693.31
2022-08-28T03:56:13.904Z,100688.13
2022-08-28T03:58:41.590Z,100690.34
2022-08-28T04:01:09.358Z,100690.75
2022-08-28T04:03:36.737Z,100693.09
2022-08-28T04:06:04.217Z,100695.06
2022-08-28T04:08:31.579Z,100703.34
2022-08-28T04:11:00.747Z,100696.66
2022-08-28T04:13:28.205Z,100706.97
2022-08-28T04:15:59.767Z,100705.97
2022-08-28T04:18:27.979Z,100717.72
2022-08-28T04:21:02.346Z,100715.31
2022-08-28T04:23:30.173Z,100714.47
2022-08-28T04:25:57.289Z,100716.31
2022-08-28T04:28:25.890Z,100716.81
2022-08-28T04:30:54.969Z,100727.59
2022-08-28T04:33:23.854Z,100728.69
2022-08-28T04:35:51.054Z,100733.16
2022-08-28T04:38:18.400Z,100742.28
2022-08-28T04:40:45.648Z,100742.97
2022-08-28T04:43:12.812Z,100742.38
2022-08-28T04:45:41.383Z,100743.75
2022-08-28T04:48:10.961Z,100748.50
2022-08-28T04:50:45.876Z,100745.28
2022-08-28T04:53:14.432Z,100750.84
2022-08-28T04:55:54.351Z,100750.00
2022-08-28T04:58:23.808Z,100739.84
2022-08-28T05:00:52.812Z,100744.84
2022-08-28T05:03:20.408Z,100746.09
2022-08-28T05:05:53.611Z,100748.75
2022-08-28T05:08:24.146Z,100749.00
2022-08-28T05:10:51.304Z,100746.47
2022-08-28T05:13:19.161Z,100754.00
2022-08-28T05:15:49.421Z,100755.59
2022-08-28T05:18:18.515Z,100753.03
2022-08-28T05:20:47.479Z,100753.28
2022-08-28T05:23:15.762Z,100754.38
2022-08-28T05:25:45.249Z,100752.53
2022-08-28T05:28:19.646Z,100755.94
2022-08-28T05:30:46.993Z,100761.97
2022-08-28T05:33:14.954Z,100761.25
2022-08-28T05:35:44.098Z,100760.28
2022-08-28T05:38:13.170Z,100772.72
2022-08-28T05:40:45.686Z,100768.03
2022-08-28T05:43:14.569Z,100772.38
2022-08-28T05:45:41.775Z,100775.78
2022-08-28T05:48:09.085Z,100774.66
2022-08-28T05:50:39.494Z,100770.69
2022-08-28T05:53:11.533Z,100767.78
2022-08-28T05:55:40.383Z,100773.50
2022-08-28T05:58:26.501Z,100768.31
2022-08-28T06:00:53.785Z,100770.75
2022-08-28T06:03:20.915Z,100782.34
2022-08-28T06:05:54.981Z,100774.75
2022-08-28T06:08:23.203Z,100772.69
2022-08-28T06:10:50.836Z,100773.34
2022-08-28T06:13:18.146Z,100777.06
2022-08-28T06:15:47.043Z,100778.66
2022-08-28T06:18:15.160Z,100786.13
2022-08-28T06:20:44.843Z,100778.16
2022-08-28T06:23:15.286Z,100780.00
2022-08-28T06:25:51.621Z,100778.41
2022-08-28T06:28:21.362Z,100783.72
2022-08-28T06:31:18.059Z,100784.09
2022-08-28T06:33:37.045Z,100788.31
2022-08-28T06:36:05.335Z,100786.03
2022-08-28T06:38:32.512Z,100788.81
2022-08-28T06:41:00.091Z,100790.00
2022-08-28T06:43:29.004Z,100796.75
2022-08-28T06:45:57.550Z,100795.31
2022-08-28T06:48:27.328Z,100807.63
2022-08-28T06:50:55.982Z,100801.22
2022-08-28T06:53:24.982Z,100805.94
2022-08-28T06:55:59.154Z,100811.97
2022-08-28T06:58:27.849Z,100812.22
2022-08-28T07:01:16.913Z,100814.38
2022-08-28T07:03:45.121Z,100823.78
2022-08-28T07:06:13.646Z,100816.44
2022-08-28T07:08:43.605Z,100820.91
2022-08-28T07:11:17.878Z,100823.19
2022-08-28T07:13:45.899Z,100827.31
2022-08-28T07:16:14.656Z,100820.06
2022-08-28T07:18:42.082Z,100824.78
2022-08-28T07:21:12.465Z,100835.88
2022-08-28T07:23:41.161Z,100836.59
2022-08-28T07:26:12.131Z,100836.97
2022-08-28T07:28:39.811Z,100841.28
2022-08-28T07:31:10.263Z,100846.50
2022-08-28T07:33:39.095Z,100848.66
2022-08-28T07:36:15.753Z,100863.16
2022-08-28T07:38:51.804Z,100864.25
2022-08-28T07:41:24.036Z,100867.75
2022-08-28T07:44:09.984Z,100865.81
2022-08-28T07:46:38.766Z,100865.94
2022-08-28T07:49:08.116Z,100858.59
2022-08-28T07:51:35.368Z,100859.44
2022-08-28T07:54:03.949Z,100863.16
2022-08-28T07:56:31.860Z,100870.78
2022-08-28T07:59:00.888Z,100862.44
2022-08-28T08:01:30.759Z,100872.81
2022-08-28T08:04:01.383Z,100867.25
2022-08-28T08:06:34.026Z,100866.97
2022-08-28T08:09:02.271Z,100867.22
2022-08-28T08:11:32.623Z,100871.81
2022-08-28T08:14:05.503Z,100876.63
2022-08-28T08:16:36.517Z,100879.56
2022-08-28T08:19:04.044Z,100879.41
2022-08-28T08:21:31.832Z,100879.09
2022-08-28T08:23:59.278Z,100879.66
2022-08-28T08:26:30.364Z,100888.25
2022-08-28T08:28:57.762Z,100881.97
2022-08-28T08:31:26.903Z,100883.91
2022-08-28T08:33:57.377Z,100890.56
2022-08-28T08:36:26.153Z,100888.47
2022-08-28T08:38:59.602Z,100889.81
2022-08-28T08:41:38.462Z,100898.50
2022-08-28T08:44:33.995Z,100897.66
2022-08-28T08:47:22.370Z,100894.16
2022-08-28T08:49:57.184Z,100898.31
2022-08-28T08:52:32.095Z,100900.59
2022-08-28T08:55:09.960Z,100901.31
2022-08-28T08:57:38.961Z,100900.00
2022-08-28T09:00:15.790Z,100906.53
2022-08-28T09:03:26.516Z,100904.44
2022-08-28T09:06:05.769Z,100903.97
2022-08-28T09:08:57.330Z,100903.34
2022-08-28T09:12:00.128Z,100906.38
2022-08-28T09:14:33.012Z,100908.06
2022-08-28T09:17:00.953Z,100910.72
2022-08-28T09:19:28.598Z,100913.38
2022-08-28T09:21:56.296Z,100920.06
2022-08-28T09:24:30.512Z,100913.47
2022-08-28T09:27:05.913Z,100916.91
2022-08-28T09:29:34.371Z,100922.44
2022-08-28T09:32:17.872Z,100916.03
2022-08-28T09:35:06.699Z,100920.38
2022-08-28T09:37:35.166Z,100915.69
2022-08-28T09:40:22.625Z,100921.13
2022-08-28T09:43:27.626Z,100927.63
2022-08-28T09:46:00.048Z,100921.88
2022-08-28T09:48:37.510Z,100919.91
2022-08-28T09:51:11.862Z,100914.84
2022-08-28T09:53:51.049Z,100926.91
2022-08-28T09:56:27.730Z,100933.41
2022-08-28T09:58:57.776Z,100941.59
2022-08-28T10:01:47.676Z,100939.22
2022-08-28T10:04:20.598Z,100940.44
2022-08-28T10:06:57.077Z,100930.41
2022-08-28T10:09:30.216Z,100939.19
2022-08-28T10:12:12.983Z,100938.34
2022-08-28T10:15:01.815Z,100942.25
2022-08-28T10:17:29.124Z,100953.00
2022-08-28T10:20:10.057Z,100961.47
2022-08-28T10:22:58.328Z,100963.16
2022-08-28T10:25:40.135Z,100956.31
2022-08-28T10:28:42.810Z,100958.34
2022-08-28T10:31:20.829Z,100958.47
2022-08-28T10:34:07.045Z,100960.28
2022-08-28T10:36:35.354Z,100962.22
2022-08-28T10:39:28.864Z,100957.88
2022-08-28T10:41:59.148Z,100972.38
2022-08-28T10:44:39.751Z,100968.13
2022-08-28T10:47:07.702Z,100974.28
2022-08-28T10:49:40.108Z,100977.91
2022-08-28T10:52:41.182Z,100977.44
2022-08-28T10:55:23.058Z,100977.16
2022-08-28T10:57:57.928Z,100979.56
2022-08-28T11:00:27.374Z,100977.41
2022-08-28T11:02:57.933Z,100984.78
2022-08-28T11:05:28.248Z,100988.63
2022-08-28T11:08:07.495Z,100984.06
2022-08-28T11:10:37.640Z,100988.16
2022-08-28T11:13:06.978Z,100992.88
2022-08-28T11:15:37.247Z,100995.75
2022-08-28T11:18:13.479Z,100993.34
2022-08-28T11:21:06.576Z,100992.63
2022-08-28T11:23:41.995Z,100997.09
2022-08-28T11:26:09.720Z,101002.41
2022-08-28T11:28:36.700Z,100998.53
2022-08-28T11:31:06.522Z,100998.53
2022-08-28T11:33:50.758Z,101003.72
2022-08-28T11:36:20.499Z,101006.66
2022-08-28T11:38:57.612Z,101005.31
2022-08-28T11:41:31.504Z,101006.53
2022-08-28T11:44:11.080Z,101016.19
2022-08-28T11:46:51.703Z,101012.34
2022-08-28T11:49:33.964Z,101015.63
2022-08-28T11:52:31.424Z,101006.94
2022-08-28T11:55:20.547Z,101006.34
2022-08-28T11:58:40.256Z,101005.09
2022-08-28T12:01:10.968Z,101010.69
2022-08-28T12:04:18.605Z,101015.34
2022-08-28T12:06:48.338Z,101006.09
2022-08-28T12:09:41.160Z,100995.72
2022-08-28T12:12:23.224Z,101001.41
2022-08-28T12:14:56.019Z,101000.16
2022-08-28T12:17:23.043Z,100997.75
2022-08-28T12:19:58.228Z,101006.22
2022-08-28T12:22:40.190Z,100998.69
2022-08-28T12:25:34.180Z,101009.19
2022-08-28T12:28:07.928Z,101002.22
2022-08-28T12:31:06.605Z,100992.19
2022-08-28T12:34:02.566Z,100997.97
2022-08-28T12:36:30.976Z,100996.97
2022-08-28T12:38:58.483Z,101003.88
2022-08-28T12:41:25.618Z,101001.34
2022-08-28T12:43:55.269Z,101002.75
2022-08-28T12:46:31.116Z,101001.22
2022-08-28T12:49:01.172Z,100998.69
2022-08-28T12:51:36.511Z,100999.41
2022-08-28T12:54:04.774Z,100998.31
2022-08-28T12:56:37.142Z,100996.25
2022-08-28T12:59:35.136Z,100995.41
2022-08-28T13:02:05.501Z,100996.88
2022-08-28T13:04:32.762Z,100997.44
2022-08-28T13:07:10.731Z,100993.00
2022-08-28T13:09:42.282Z,100988.63
2022-08-28T13:12:37.798Z,100998.41
2022-08-28T13:15:14.031Z,100990.31
2022-08-28T13:17:52.869Z,100991.03
2022-08-28T13:20:30.551Z,100988.13
2022-08-28T13:22:57.848Z,100992.34
2022-08-28T13:25:31.118Z,100991.38
2022-08-28T13:28:04.437Z,100986.91
2022-08-28T13:30:34.285Z,100988.22
2022-08-28T13:33:04.771Z,100981.91
2022-08-28T13:35:35.832Z,100984.06
2022-08-28T13:38:08.735Z,100981.59
2022-08-28T13:40:57.336Z,100979.56
2022-08-28T13:43:27.760Z,100978.84
2022-08-28T13:45:54.961Z,100976.13
2022-08-28T13:48:25.117Z,100977.56
2022-08-28T13:50:58.892Z,100978.72
2022-08-28T13:53:26.061Z,100969.66
2022-08-28T13:55:53.180Z,100977.97
2022-08-28T13:58:20.420Z,100976.19
2022-08-28T14:00:49.379Z,100971.97
2022-08-28T14:03:35.206Z,100972.16
2022-08-28T14:06:14.068Z,100973.59
2022-08-28T14:08:43.334Z,100971.69
2022-08-28T14:11:12.851Z,100973.84
2022-08-28T14:13:47.349Z,100976.84
2022-08-28T14:16:25.730Z,100973.81
2022-08-28T14:18:53.169Z,100970.97
2022-08-28T14:21:21.357Z,100966.00
2022-08-28T14:23:48.540Z,100959.59
2022-08-28T14:26:15.663Z,100959.91
2022-08-28T14:28:42.796Z,100964.78
2022-08-28T14:31:13.831Z,100963.63
2022-08-28T14:33:45.461Z,100958.53
2022-08-28T14:36:21.877Z,100955.47
2022-08-28T14:38:53.842Z,100958.19
2022-08-28T14:41:23.698Z,100956.28
2022-08-28T14:43:51.111Z,100952.97
2022-08-28T14:46:25.231Z,100948.28
2022-08-28T14:48:52.440Z,100952.88
2022-08-28T14:51:19.551Z,100946.94
2022-08-28T14:53:46.992Z,100947.75
2022-08-28T14:56:14.382Z,100945.69
2022-08-28T14:58:41.825Z,100948.13
2022-08-28T15:01:09.214Z,100941.41
2022-08-28T15:03:36.449Z,100948.56
2022-08-28T15:06:07.307Z,100949.44
2022-08-28T15:08:36.762Z,100952.75
2022-08-28T15:11:14.303Z,100939.63
2022-08-28T15:13:47.082Z,100946.44
2022-08-28T15:16:30.399Z,100945.06
2022-08-28T15:18:59.131Z,100941.41
2022-08-28T15:21:35.645Z,100939.78
2022-08-28T15:24:04.473Z,100945.75
2022-08-28T15:26:32.741Z,100940.03
2022-08-28T15:29:03.062Z,100937.75
2022-08-28T15:31:35.339Z,100937.78
2022-08-28T15:34:04.391Z,100937.38
2022-08-28T15:36:34.881Z,100940.84
2022-08-28T15:39:21.727Z,100943.03
2022-08-28T15:41:49.085Z,100941.44
2022-08-28T15:44:16.230Z,100942.09
2022-08-28T15:46:50.525Z,100938.63
2022-08-28T15:49:18.786Z,100940.94
2022-08-28T15:51:45.949Z,100944.34
2022-08-28T15:54:13.442Z,100939.59
2022-08-28T15:56:41.615Z,100938.50
2022-08-28T15:59:12.210Z,100943.47
2022-08-28T16:01:39.693Z,100939.44
2022-08-28T16:04:07.332Z,100936.66
2022-08-28T16:06:35.500Z,100938.56
2022-08-28T16:09:04.516Z,100938.75
2022-08-28T16:11:33.859Z,100934.88
2022-08-28T16:14:04.473Z,100935.16
2022-08-28T16:16:31.722Z,100936.22
2022-08-28T16:18:59.197Z,100934.41
2022-08-28T16:21:27.517Z,100940.63
2022-08-28T16:23:55.604Z,100937.19
2022-08-28T16:26:23.248Z,100927.47
2022-08-28T16:28:50.450Z,100929.41
2022-08-28T16:31:20.594Z,100929.91
2022-08-28T16:33:49.145Z,100932.00
2022-08-28T16:36:17.226Z,100933.25
2022-08-28T16:38:46.069Z,100935.81
2022-08-28T16:41:21.860Z,100931.34
2022-08-28T16:43:49.930Z,100934.63
2022-08-28T16:46:20.684Z,100931.16
2022-08-28T16:48:48.083Z,100939.28
2022-08-28T16:51:16.158Z,100932.94
2022-08-28T16:53:43.520Z,100929.69
2022-08-28T16:56:12.257Z,100939.41
2022-08-28T16:58:40.422Z,100931.88
2022-08-28T17:01:08.226Z,100932.88
2022-08-28T17:03:39.065Z,100936.84
2022-08-28T17:06:11.530Z,100933.31
2022-08-28T17:08:38.917Z,100941.41
2022-08-28T17:11:06.711Z,100931.66
2022-08-28T17:13:34.839Z,100929.31
2022-08-28T17:16:02.749Z,100937.00
2022-08-28T17:18:29.944Z,100938.84
2022-08-28T17:21:15.956Z,100936.81
2022-08-28T17:23:43.083Z,100937.78
2022-08-28T17:26:10.231Z,100937.53
2022-08-28T17:28:37.318Z,100945.38
2022-08-28T17:31:04.739Z,100945.34
2022-08-28T17:33:31.924Z,100947.78
2022-08-28T17:35:59.784Z,100952.66
2022-08-28T17:38:26.927Z,100952.44
2022-08-28T17:40:54.034Z,100948.50
2022-08-28T17:43:21.215Z,100956.34
2022-08-28T17:45:48.622Z,100950.13
2022-08-28T17:48:16.986Z,100956.50
2022-08-28T17:50:46.188Z,100959.47
2022-08-28T17:53:13.435Z,100957.56
2022-08-28T17:55:40.531Z,100960.03
2022-08-28T17:58:07.736Z,100962.97
2022-08-28T18:00:35.150Z,100966.94
2022-08-28T18:03:02.704Z,100967.41
2022-08-28T18:05:29.981Z,100960.97
2022-08-28T18:07:57.852Z,100964.81
2022-08-28T18:10:26.147Z,100971.66
2022-08-28T18:12:54.019Z,100968.72
2022-08-28T18:15:22.142Z,100977.69
2022-08-28T18:17:50.495Z,100980.47
2022-08-28T18:20:18.909Z,100987.41
2022-08-28T18:22:46.117Z,100989.84
2022-08-28T18:25:33.623Z,100988.84
2022-08-28T18:28:01.612Z,100985.25
2022-08-28T18:30:29.469Z,100995.41
2022-08-28T18:32:58.471Z,100990.94
2022-08-28T18:35:32.109Z,100998.28
2022-08-28T18:38:01.594Z,100997.56
2022-08-28T18:40:29.102Z,100997.91
2022-08-28T18:42:56.239Z,101002.59
2022-08-28T18:45:23.432Z,101009.38
2022-08-28T18:47:50.607Z,101010.09
2022-08-28T18:50:21.732Z,101011.53
2022-08-28T18:52:53.101Z,101014.75
2022-08-28T18:55:21.395Z,101016.03
2022-08-28T18:57:51.369Z,101017.31
2022-08-28T19:00:20.826Z,101022.56
2022-08-28T19:02:48.038Z,101021.84
2022-08-28T19:05:15.722Z,101021.16
2022-08-28T19:07:42.841Z,101028.31
2022-08-28T19:10:28.047Z,101022.97
2022-08-28T19:12:58.424Z,101022.41
2022-08-28T19:15:25.634Z,101019.19
2022-08-28T19:17:52.795Z,101028.59
2022-08-28T19:20:20.567Z,101026.91
2022-08-28T19:22:48.763Z,101023.13
2022-08-28T19:25:27.531Z,101026.63
2022-08-28T19:28:00.993Z,101033.91
2022-08-28T19:30:33.183Z,101031.50
2022-08-28T19:33:02.351Z,101042.06
2022-08-28T19:35:29.607Z,101052.16
2022-08-28T19:37:56.734Z,101040.50
2022-08-28T19:40:24.034Z,101045.94
2022-08-28T19:42:51.583Z,101049.88
2022-08-28T19:45:20.218Z,101046.91
2022-08-28T19:47:47.848Z,101049.97
2022-08-28T19:50:15.509Z,101047.41
2022-08-28T19:52:43.494Z,101053.00
2022-08-28T19:55:20.025Z,101050.50
2022-08-28T19:57:48.459Z,101045.66
2022-08-28T20:00:17.777Z,101053.63
2022-08-28T20:02:45.813Z,101056.00
2022-08-28T20:05:13.167Z,101056.13
2022-08-28T20:07:40.432Z,101051.31
2022-08-28T20:10:07.941Z,101056.44
2022-08-28T20:12:35.731Z,101062.03
2022-08-28T20:15:03.821Z,101060.22
2022-08-28T20:17:31.352Z,101065.66
2022-08-28T20:20:02.363Z,101065.47
2022-08-28T20:22:31.831Z,101070.06
2022-08-28T20:24:59.517Z,101070.81
2022-08-28T20:27:27.904Z,101074.47
2022-08-28T20:29:55.088Z,101077.78
2022-08-28T20:32:22.255Z,101082.19
2022-08-28T20:34:49.465Z,101084.25
2022-08-28T20:37:17.021Z,101082.56
2022-08-28T20:39:44.218Z,101085.34
2022-08-28T20:42:11.783Z,101088.38
2022-08-28T20:44:38.996Z,101082.09
2022-08-28T20:47:06.411Z,101083.66
2022-08-28T20:49:39.247Z,101087.53
2022-08-28T20:52:07.033Z,101079.94
2022-08-28T20:54:41.604Z,101080.06
2022-08-28T20:57:10.863Z,101073.78
2022-08-28T20:59:40.609Z,101074.16
2022-08-28T21:02:10.312Z,101083.38
2022-08-28T21:04:38.822Z,101085.31
2022-08-28T21:07:11.176Z,101082.03
2022-08-28T21:10:04.123Z,101085.69
2022-08-28T21:12:25.647Z,101086.56
2022-08-28T21:14:53.162Z,101083.06
2022-08-28T21:17:29.117Z,101089.59
2022-08-28T21:20:04.148Z,101088.16
2022-08-28T21:22:32.853Z,101089.34
2022-08-28T21:25:00.877Z,101088.88
2022-08-28T21:27:28.378Z,101101.22
2022-08-28T21:29:58.255Z,101104.75
2022-08-28T21:32:26.749Z,101094.56
2022-08-28T21:34:55.037Z,101100.13
2022-08-28T21:37:23.019Z,101098.81
2022-08-28T21:39:50.733Z,101095.16
2022-08-28T21:42:18.644Z,101091.44
2022-08-28T21:44:51.983Z,101096.88
2022-08-28T21:47:22.920Z,101096.97
2022-08-28T21:49:54.865Z,101098.53
2022-08-28T21:52:23.605Z,101097.69
2022-08-28T21:54:55.840Z,101092.88
2022-08-28T21:57:23.161Z,101096.84
2022-08-28T21:59:50.311Z,101096.81
2022-08-28T22:02:17.573Z,101107.06
2022-08-28T22:04:44.842Z,101104.41
2022-08-28T22:07:14.162Z,101102.00
2022-08-28T22:09:41.708Z,101104.28
2022-08-28T22:12:09.169Z,101103.06
2022-08-28T22:14:36.659Z,101111.13
2022-08-28T22:17:10.169Z,101113.69
2022-08-28T22:19:38.827Z,101107.75
2022-08-28T22:22:24.235Z,101113.50
2022-08-28T22:24:51.427Z,101110.34
2022-08-28T22:27:18.613Z,101111.69
2022-08-28T22:29:45.994Z,101112.66
2022-08-28T22:32:19.160Z,101113.63
2022-08-28T22:34:46.397Z,101116.63
2022-08-28T22:37:13.603Z,101107.44
2022-08-28T22:39:41.766Z,101104.19
2022-08-28T22:42:10.127Z,101114.91
2022-08-28T22:44:37.511Z,101103.91
2022-08-28T22:47:05.266Z,101100.50
2022-08-28T22:49:32.450Z,101111.38
2022-08-28T22:51:59.637Z,101106.50
2022-08-28T22:54:26.803Z,101113.94
2022-08-28T22:56:53.905Z,101124.91
2022-08-28T22:59:22.117Z,101125.88
2022-08-28T23:01:49.333Z,101128.03
2022-08-28T23:04:16.964Z,101116.44
2022-08-28T23:06:44.243Z,101118.47
2022-08-28T23:09:11.504Z,101124.03
2022-08-28T23:11:39.018Z,101118.94
2022-08-28T23:14:06.138Z,101120.94
2022-08-28T23:16:35.279Z,101123.09
2022-08-28T23:19:13.070Z,101120.44
2022-08-28T23:21:43.639Z,101118.84
2022-08-28T23:24:16.062Z,101113.75
2022-08-28T23:26:44.575Z,101111.31
2022-08-28T23:29:12.092Z,101113.84
2022-08-28T23:31:39.563Z,101113.00
2022-08-28T23:34:06.844Z,101118.22
2022-08-28T23:36:35.844Z,101113.00
2022-08-28T23:39:04.627Z,101115.88
2022-08-28T23:41:32.616Z,101121.28
2022-08-28T23:43:59.865Z,101113.44
2022-08-28T23:46:27.187Z,101114.16
2022-08-28T23:48:54.319Z,101113.66
2022-08-28T23:51:22.020Z,101116.63
2022-08-28T23:53:50.423Z,101104.97
2022-08-28T23:56:18.470Z,101107.72
2022-08-28T23:58:45.576Z,101115.16
